createdAt,value
2017-02-11T11:45:25.476Z,140
2017-02-11T11:46:25.044Z,135
2017-02-11T11:47:25.453Z,140
2017-02-11T11:48:25.372Z,140
2017-02-11T11:49:25.763Z,135
2017-02-11T11:50:25.681Z,125
2017-02-11T11:51:25.650Z,110
2017-02-11T11:52:24.868Z,105
2017-02-11T11:53:25.590Z,110
2017-02-11T11:54:24.462Z,115
2017-02-11T11:55:25.161Z,120
2017-02-11T11:56:25.503Z,125
2017-02-11T11:57:25.479Z,120
2017-02-11T11:58:25.071Z,125
2017-02-11T11:59:25.052Z,130
2017-02-11T12:00:25.017Z,135
2017-02-11T12:01:24.988Z,150
2017-02-11T12:02:25.337Z,170
2017-02-11T12:03:24.543Z,185
2017-02-11T12:04:24.561Z,175
2017-02-11T12:05:24.890Z,170
2017-02-11T12:06:25.292Z,185
2017-02-11T12:07:24.842Z,195
2017-02-11T12:08:24.794Z,195
2017-02-11T12:09:25.162Z,200
2017-02-11T12:10:25.131Z,185
2017-02-11T12:11:25.131Z,170
2017-02-11T12:12:23.936Z,160
2017-02-11T12:13:24.979Z,165
2017-02-11T12:14:25.028Z,165
2017-02-11T12:15:24.625Z,170
2017-02-11T12:16:24.983Z,175
2017-02-11T12:17:24.186Z,185
2017-02-11T12:18:24.554Z,190
2017-02-11T12:19:24.901Z,190
2017-02-11T12:20:24.506Z,185
2017-02-11T12:21:23.709Z,175
2017-02-11T12:22:24.448Z,175
2017-02-11T12:23:24.849Z,175
2017-02-11T12:24:24.785Z,175
2017-02-11T12:25:24.410Z,175
2017-02-11T12:26:24.411Z,165
2017-02-11T12:27:23.933Z,160
2017-02-11T12:28:24.682Z,160
2017-02-11T12:29:24.271Z,160
2017-02-11T12:30:24.253Z,170
2017-02-11T12:31:24.665Z,170
2017-02-11T12:32:24.923Z,160
2017-02-11T12:33:24.846Z,170
2017-02-11T12:34:24.527Z,175
2017-02-11T12:35:24.119Z,165
2017-02-11T12:36:24.478Z,155
2017-02-11T12:37:24.088Z,145
2017-02-11T12:38:24.043Z,130
2017-02-11T12:39:24.412Z,120
2017-02-11T12:40:23.997Z,115
2017-02-11T12:41:24.357Z,120
2017-02-11T12:42:23.948Z,130
2017-02-11T12:43:24.309Z,135
2017-02-11T12:44:24.280Z,160
2017-02-11T12:45:24.266Z,160
2017-02-11T12:46:23.519Z,170
2017-02-11T12:47:24.214Z,185
2017-02-11T12:48:23.443Z,190
2017-02-11T12:49:23.803Z,190
2017-02-11T12:50:24.134Z,195
2017-02-11T12:51:23.719Z,205
2017-02-11T12:52:23.689Z,215
2017-02-11T12:53:23.730Z,215
2017-02-11T12:54:23.256Z,205
2017-02-11T12:55:23.349Z,190
2017-02-11T12:56:23.600Z,185
2017-02-11T12:57:23.621Z,170
2017-02-11T12:58:23.935Z,155
2017-02-11T12:59:23.571Z,145
2017-02-11T13:00:23.125Z,140
2017-02-11T13:01:23.476Z,135
2017-02-11T13:02:23.450Z,140
2017-02-11T13:03:23.808Z,140
2017-02-11T13:04:23.803Z,140
2017-02-11T13:05:23.382Z,140
2017-02-11T13:06:23.742Z,135
2017-02-11T13:07:23.727Z,135
2017-02-11T13:08:22.929Z,140
2017-02-11T13:09:23.661Z,150
2017-02-11T13:10:23.639Z,175
2017-02-11T13:11:23.236Z,185
2017-02-11T13:12:23.206Z,185
2017-02-11T13:13:23.431Z,180
2017-02-11T13:14:23.155Z,175
2017-02-11T13:15:23.140Z,190
2017-02-11T13:16:23.128Z,200
2017-02-11T13:17:22.691Z,210
2017-02-11T13:18:22.673Z,215
2017-02-11T13:19:23.478Z,220
2017-02-11T13:20:23.009Z,225
2017-02-11T13:21:23.368Z,230
2017-02-11T13:22:23.360Z,240
2017-02-11T13:23:22.939Z,260
2017-02-11T13:24:23.596Z,300
2017-02-11T13:25:23.274Z,330
2017-02-11T13:26:22.868Z,315
2017-02-11T13:27:22.826Z,290
2017-02-11T13:28:22.806Z,270
2017-02-11T13:29:22.408Z,255
2017-02-11T13:30:22.803Z,235
2017-02-11T13:31:22.356Z,215
2017-02-11T13:32:23.108Z,195
2017-02-11T13:33:22.689Z,180
2017-02-11T13:34:22.658Z,170
2017-02-11T13:35:22.637Z,165
2017-02-11T13:36:23.299Z,160
2017-02-11T13:37:22.592Z,155
2017-02-11T13:38:23.003Z,155
2017-02-11T13:39:22.980Z,150
2017-02-11T13:40:22.524Z,145
2017-02-11T13:41:22.491Z,150
2017-02-11T13:42:22.464Z,145
2017-02-11T13:43:22.440Z,145
2017-02-11T13:44:22.070Z,145
2017-02-11T13:45:22.062Z,145
2017-02-11T13:46:22.387Z,145
2017-02-11T13:47:22.727Z,140
2017-02-11T13:48:22.766Z,135
2017-02-11T13:49:21.909Z,135
2017-02-11T13:50:21.599Z,135
2017-02-11T13:51:22.618Z,130
2017-02-11T13:52:22.315Z,130
2017-02-11T13:53:22.629Z,130
2017-02-11T13:54:22.563Z,130
2017-02-11T13:55:22.142Z,130
2017-02-11T13:56:22.503Z,130
2017-02-11T13:57:22.464Z,135
2017-02-11T13:58:22.466Z,140
2017-02-11T13:59:21.653Z,140
2017-02-11T14:00:21.631Z,145
2017-02-11T14:01:22.420Z,145
2017-02-11T14:02:22.340Z,145
2017-02-11T14:03:22.618Z,140
2017-02-11T14:04:21.911Z,140
2017-02-11T14:05:21.882Z,140
2017-02-11T14:06:22.288Z,140
2017-02-11T14:07:22.214Z,140
2017-02-11T14:08:22.199Z,140
2017-02-11T14:09:22.272Z,140
2017-02-11T14:10:21.757Z,140
2017-02-11T14:11:22.119Z,140
2017-02-11T14:12:22.131Z,140
2017-02-11T14:13:22.073Z,135
2017-02-11T14:14:21.263Z,140
2017-02-11T14:15:22.018Z,135
2017-02-11T14:16:21.662Z,135
2017-02-11T14:17:21.973Z,135
2017-02-11T14:18:21.945Z,135
2017-02-11T14:19:21.526Z,135
2017-02-11T14:20:21.884Z,135
2017-02-11T14:21:21.491Z,135
2017-02-11T14:22:21.834Z,135
2017-02-11T14:23:21.816Z,135
2017-02-11T14:24:21.787Z,135
2017-02-11T14:25:21.370Z,135
2017-02-11T14:26:20.592Z,130
2017-02-11T14:27:20.937Z,130
2017-02-11T14:28:21.703Z,130
2017-02-11T14:29:21.677Z,130
2017-02-11T14:30:21.680Z,130
2017-02-11T14:31:21.605Z,125
2017-02-11T14:32:21.208Z,125
2017-02-11T14:33:21.164Z,125
2017-02-11T14:34:20.769Z,125
2017-02-11T14:35:21.178Z,125
2017-02-11T14:36:20.717Z,125
2017-02-11T14:37:21.071Z,125
2017-02-11T14:38:20.672Z,120
2017-02-11T14:39:21.405Z,120
2017-02-11T14:40:21.383Z,120
2017-02-11T14:41:20.585Z,120
2017-02-11T14:42:21.373Z,120
2017-02-11T14:43:21.295Z,120
2017-02-11T14:44:21.288Z,115
2017-02-11T14:45:20.858Z,115
2017-02-11T14:46:20.562Z,115
2017-02-11T14:47:21.201Z,110
2017-02-11T14:48:21.167Z,110
2017-02-11T14:49:21.151Z,105
2017-02-11T14:50:20.737Z,105
2017-02-11T14:51:20.721Z,100
2017-02-11T14:52:20.690Z,100
2017-02-11T14:53:21.052Z,95
2017-02-11T14:54:20.263Z,95
2017-02-11T14:55:20.623Z,95
2017-02-11T14:56:20.211Z,90
2017-02-11T14:57:20.205Z,90
2017-02-11T14:58:20.831Z,90
2017-02-11T14:59:20.957Z,90
2017-02-11T15:00:20.496Z,90
2017-02-11T15:01:20.068Z,85
2017-02-11T15:02:20.480Z,85
2017-02-11T15:03:20.409Z,85
2017-02-11T15:04:20.776Z,85
2017-02-11T15:05:19.987Z,85
2017-02-11T15:06:19.567Z,85
2017-02-11T15:07:20.695Z,80
2017-02-11T15:08:19.898Z,80
2017-02-11T15:09:20.645Z,80
2017-02-11T15:10:19.467Z,75
2017-02-11T15:11:20.593Z,75
2017-02-11T15:12:19.070Z,75
2017-02-11T15:13:20.146Z,75
2017-02-11T15:14:20.562Z,75
2017-02-11T15:15:20.493Z,75
2017-02-11T15:16:20.779Z,75
2017-02-11T15:17:20.428Z,75
2017-02-11T15:18:19.263Z,75
2017-02-11T15:19:20.405Z,75
2017-02-11T15:20:20.372Z,75
2017-02-11T15:21:20.346Z,75
2017-02-11T15:22:20.316Z,75
2017-02-11T15:23:20.155Z,75
2017-02-11T15:24:20.254Z,70
2017-02-11T15:25:19.857Z,70
2017-02-11T15:26:20.221Z,70
2017-02-11T15:27:20.244Z,70
2017-02-11T15:28:19.774Z,65
2017-02-11T15:29:19.754Z,65
2017-02-11T15:30:18.956Z,65
2017-02-11T15:31:19.335Z,60
2017-02-11T15:32:19.352Z,60
2017-02-11T15:33:20.285Z,60
2017-02-11T15:34:20.008Z,55
2017-02-11T15:35:19.608Z,55
2017-02-11T15:36:19.570Z,50
2017-02-11T15:37:19.981Z,50
2017-02-11T15:38:19.921Z,50
2017-02-11T15:39:19.870Z,50
2017-02-11T15:40:19.903Z,50
2017-02-11T15:41:19.827Z,45
2017-02-11T15:42:19.424Z,45
2017-02-11T15:43:19.402Z,45
2017-02-11T15:44:19.739Z,45
2017-02-11T15:45:18.953Z,45
2017-02-11T15:46:19.692Z,45
2017-02-11T15:47:18.954Z,45
2017-02-11T15:48:19.268Z,45
2017-02-11T15:49:19.227Z,45
2017-02-11T15:50:19.590Z,45
2017-02-11T15:51:19.582Z,45
2017-02-11T15:52:19.162Z,45
2017-02-11T15:53:19.518Z,40
2017-02-11T15:54:19.497Z,40
2017-02-11T15:55:19.084Z,35
2017-02-11T15:56:19.112Z,35
2017-02-11T15:57:19.415Z,35
2017-02-11T15:58:18.993Z,35
2017-02-11T15:59:18.971Z,30
2017-02-11T16:00:18.176Z,30
2017-02-11T16:01:18.544Z,30
2017-02-11T16:02:19.281Z,30
2017-02-11T16:03:19.265Z,30
2017-02-11T16:04:19.230Z,30
2017-02-11T16:05:18.433Z,30
2017-02-11T16:06:19.180Z,30
2017-02-11T16:07:18.762Z,30
2017-02-11T16:08:19.116Z,25
2017-02-11T16:09:18.786Z,25
2017-02-11T16:10:18.742Z,25
2017-02-11T16:11:18.664Z,25
2017-02-11T16:12:19.017Z,25
2017-02-11T16:13:18.988Z,25
2017-02-11T16:14:18.966Z,25
2017-02-11T16:15:18.944Z,20
2017-02-11T16:16:18.536Z,20
2017-02-11T16:17:18.885Z,20
2017-02-11T16:18:18.471Z,20
2017-02-11T16:19:18.085Z,20
2017-02-11T16:20:18.032Z,20
2017-02-11T16:21:17.653Z,20
2017-02-11T16:22:18.759Z,15
2017-02-11T16:23:17.961Z,15
2017-02-11T16:24:18.703Z,15
2017-02-11T16:25:17.966Z,15
2017-02-11T16:26:18.642Z,15
2017-02-11T16:27:18.242Z,10
2017-02-11T16:28:18.216Z,10
2017-02-11T16:29:18.181Z,10
2017-02-11T16:30:18.198Z,10
2017-02-11T16:31:18.587Z,10
2017-02-11T16:32:18.123Z,5
2017-02-11T16:33:17.692Z,5
2017-02-11T16:34:18.098Z,5
2017-02-11T16:35:17.653Z,5
2017-02-11T16:36:17.619Z,5
2017-02-11T16:37:17.993Z,5
2017-02-11T16:38:17.618Z,5
2017-02-11T16:39:17.955Z,5
2017-02-11T16:40:18.603Z,0
2017-02-11T16:41:18.269Z,0
2017-02-11T16:42:17.838Z,0
2017-02-11T16:43:18.201Z,0
2017-02-11T16:44:18.170Z,0
2017-02-11T16:45:18.148Z,0
2017-02-11T16:46:18.119Z,0
2017-02-11T16:47:18.114Z,0
2017-02-11T16:48:17.706Z,0
2017-02-11T16:49:17.906Z,0
2017-02-11T16:50:18.017Z,0
2017-02-11T16:51:17.988Z,0
2017-02-11T16:52:18.011Z,0
2017-02-11T16:53:17.608Z,0
2017-02-11T16:54:17.898Z,0
2017-02-11T16:55:17.916Z,0
2017-02-11T16:56:17.859Z,0
2017-02-11T16:57:17.447Z,0
2017-02-11T16:58:17.072Z,0
2017-02-11T16:59:17.396Z,0
2017-02-11T17:00:17.394Z,0
2017-02-11T17:01:16.574Z,0
2017-02-11T17:02:17.702Z,0
2017-02-11T17:03:17.288Z,0
2017-02-11T17:04:17.262Z,0
2017-02-11T17:05:17.620Z,0
2017-02-11T17:06:17.268Z,0
2017-02-11T17:07:17.559Z,0
2017-02-11T17:08:16.795Z,0
2017-02-11T17:09:17.514Z,0
2017-02-11T17:10:17.093Z,0
2017-02-11T17:11:17.459Z,0
2017-02-11T17:12:17.052Z,0
2017-02-11T17:13:16.638Z,0
2017-02-11T17:14:17.377Z,0
2017-02-11T17:15:17.367Z,0
2017-02-11T17:16:17.329Z,0
2017-02-11T17:17:16.549Z,0
2017-02-11T17:18:16.887Z,0
2017-02-11T17:19:17.242Z,0
2017-02-11T17:20:17.221Z,0
2017-02-11T17:21:17.197Z,0
2017-02-11T17:22:16.817Z,0
2017-02-11T17:23:17.140Z,0
2017-02-11T17:24:16.342Z,0
2017-02-11T17:25:16.704Z,0
2017-02-11T17:26:16.521Z,0
2017-02-11T17:27:17.032Z,0
2017-02-11T17:28:17.015Z,0
2017-02-11T17:29:16.594Z,0
2017-02-11T17:30:16.949Z,0
2017-02-11T17:31:17.213Z,0
2017-02-11T17:32:16.883Z,0
2017-02-11T17:33:16.483Z,0
2017-02-11T17:34:16.847Z,0
2017-02-11T17:35:17.284Z,0
2017-02-11T17:36:16.021Z,0
2017-02-11T17:37:16.372Z,0
2017-02-11T17:38:16.723Z,0
2017-02-11T17:39:16.375Z,0
2017-02-11T17:40:16.287Z,0
2017-02-11T17:41:16.646Z,0
2017-02-11T17:42:16.241Z,0
2017-02-11T17:43:16.221Z,0
2017-02-11T17:44:15.857Z,0
2017-02-11T17:45:15.885Z,0
2017-02-11T17:46:15.739Z,0
2017-02-11T17:47:16.528Z,0
2017-02-11T17:48:16.081Z,0
2017-02-11T17:49:15.677Z,0
2017-02-11T17:50:16.469Z,0
2017-02-11T17:51:16.378Z,0
2017-02-11T17:52:15.654Z,0
2017-02-11T17:53:15.963Z,0
2017-02-11T17:54:16.288Z,0
2017-02-11T17:55:15.888Z,0
2017-02-11T17:56:15.860Z,0
2017-02-11T17:57:15.834Z,0
2017-02-11T17:58:16.176Z,0
2017-02-11T17:59:15.765Z,0
2017-02-11T18:00:16.151Z,0
2017-02-11T18:01:16.200Z,0
2017-02-11T18:02:16.092Z,0
2017-02-11T18:03:16.047Z,0
2017-02-11T18:04:16.074Z,0
2017-02-11T18:05:15.608Z,0
2017-02-11T18:06:15.573Z,0
2017-02-11T18:07:15.937Z,0
2017-02-11T18:08:15.142Z,0
2017-02-11T18:09:15.882Z,0
2017-02-11T18:10:15.476Z,0
2017-02-11T18:11:15.068Z,0
2017-02-11T18:12:15.037Z,0
2017-02-11T18:13:15.436Z,0
2017-02-11T18:14:15.737Z,0
2017-02-11T18:15:15.016Z,0
2017-02-11T18:16:14.941Z,0
2017-02-11T18:17:14.901Z,0
2017-02-11T18:18:15.313Z,0
2017-02-11T18:19:15.668Z,0
2017-02-11T18:20:15.215Z,0
2017-02-11T18:21:15.472Z,0
2017-02-11T18:22:15.203Z,0
2017-02-11T18:23:15.114Z,0
2017-02-11T18:24:15.466Z,0
2017-02-11T18:25:15.474Z,0
2017-02-11T18:26:14.673Z,0
2017-02-11T18:27:15.450Z,0
2017-02-11T18:28:15.045Z,0
2017-02-11T18:29:15.353Z,0
2017-02-11T18:30:14.563Z,0
2017-02-11T18:31:14.948Z,0
2017-02-11T18:32:15.301Z,0
2017-02-11T18:33:15.240Z,0
2017-02-11T18:34:14.053Z,0
2017-02-11T18:35:15.183Z,0
2017-02-11T18:36:15.159Z,0
2017-02-11T18:37:15.138Z,0
2017-02-11T18:38:15.149Z,0
2017-02-11T18:39:14.689Z,0
2017-02-11T18:40:14.664Z,0
2017-02-11T18:41:15.030Z,0
2017-02-11T18:42:14.614Z,0
2017-02-11T18:43:14.584Z,0
2017-02-11T18:44:14.849Z,0
2017-02-11T18:45:13.763Z,0
2017-02-11T18:46:14.508Z,0
2017-02-11T18:47:14.079Z,0
2017-02-11T18:48:14.046Z,0
2017-02-11T18:49:14.415Z,0
2017-02-11T18:50:14.683Z,0
2017-02-11T18:51:14.674Z,0
2017-02-11T18:52:14.337Z,0
2017-02-11T18:53:14.319Z,0
2017-02-11T18:54:13.859Z,0
2017-02-11T18:55:14.275Z,0
2017-02-11T18:56:13.850Z,0
2017-02-11T18:57:13.815Z,0
2017-02-11T18:58:14.222Z,0
2017-02-11T18:59:14.164Z,0
2017-02-11T19:00:14.136Z,0
2017-02-11T19:01:14.110Z,0
2017-02-11T19:02:14.073Z,0
2017-02-11T19:03:14.432Z,0
2017-02-11T19:04:14.007Z,0
2017-02-11T19:05:14.367Z,0
2017-02-11T19:06:13.618Z,0
2017-02-11T19:07:13.924Z,0
2017-02-11T19:08:14.307Z,0
2017-02-11T19:09:14.253Z,0
2017-02-11T19:10:13.888Z,0
2017-02-11T19:11:14.214Z,0
2017-02-11T19:12:14.175Z,0
2017-02-11T19:13:13.760Z,0
2017-02-11T19:14:13.800Z,0
2017-02-11T19:15:14.089Z,0
2017-02-11T19:16:13.684Z,0
2017-02-11T19:17:13.654Z,0
2017-02-11T19:18:13.630Z,0
2017-02-11T19:19:13.227Z,0
2017-02-11T19:20:13.593Z,0
2017-02-11T19:21:13.165Z,0
2017-02-11T19:22:13.138Z,0
2017-02-11T19:23:13.878Z,0
2017-02-11T19:24:13.518Z,0
2017-02-11T19:25:13.499Z,0
2017-02-11T19:26:13.411Z,0
2017-02-11T19:27:13.393Z,0
2017-02-11T19:28:13.354Z,0
2017-02-11T19:29:12.945Z,0
2017-02-11T19:30:13.359Z,0
2017-02-11T19:31:13.273Z,0
2017-02-11T19:32:13.629Z,0
2017-02-11T19:33:13.617Z,0
2017-02-11T19:34:13.577Z,0
2017-02-11T19:35:12.445Z,0
2017-02-11T19:36:12.806Z,0
2017-02-11T19:37:12.340Z,0
2017-02-11T19:38:13.096Z,0
2017-02-11T19:39:13.453Z,0
2017-02-11T19:40:12.687Z,0
2017-02-11T19:41:13.011Z,0
2017-02-11T19:42:12.977Z,0
2017-02-11T19:43:13.356Z,0
2017-02-11T19:44:12.971Z,0
2017-02-11T19:45:13.273Z,0
2017-02-11T19:46:13.306Z,0
2017-02-11T19:47:12.518Z,0
2017-02-11T19:48:12.453Z,0
2017-02-11T19:49:12.792Z,0
2017-02-11T19:50:13.153Z,0
2017-02-11T19:51:13.126Z,0
2017-02-11T19:52:12.715Z,0
2017-02-11T19:53:13.122Z,0
2017-02-11T19:54:11.878Z,0
2017-02-11T19:55:12.243Z,0
2017-02-11T19:56:12.991Z,0
2017-02-11T19:57:12.967Z,0
2017-02-11T19:58:12.931Z,0
2017-02-11T19:59:12.192Z,0
2017-02-11T20:00:12.873Z,0
2017-02-11T20:01:12.854Z,0
2017-02-11T20:02:12.439Z,0
2017-02-11T20:03:12.798Z,0
2017-02-11T20:04:12.386Z,0
2017-02-11T20:05:12.379Z,0
2017-02-11T20:06:11.595Z,0
2017-02-11T20:07:12.351Z,0
2017-02-11T20:08:12.663Z,0
2017-02-11T20:09:12.628Z,0
2017-02-11T20:10:12.599Z,0
2017-02-11T20:11:12.198Z,0
2017-02-11T20:12:11.781Z,0
2017-02-11T20:13:12.524Z,0
2017-02-11T20:14:11.723Z,0
2017-02-11T20:15:12.479Z,0
2017-02-11T20:16:12.493Z,0
2017-02-11T20:17:12.024Z,0
2017-02-11T20:18:12.393Z,0
2017-02-11T20:19:11.206Z,0
2017-02-11T20:20:11.943Z,0
2017-02-11T20:21:11.970Z,0
2017-02-11T20:22:11.520Z,0
2017-02-11T20:23:11.933Z,0
2017-02-11T20:24:12.228Z,0
2017-02-11T20:25:11.425Z,0
2017-02-11T20:26:12.192Z,0
2017-02-11T20:27:11.463Z,0
2017-02-11T20:28:11.761Z,0
2017-02-11T20:29:11.753Z,0
2017-02-11T20:30:11.683Z,0
2017-02-11T20:31:12.377Z,0
2017-02-11T20:32:12.043Z,0
2017-02-11T20:33:11.609Z,0
2017-02-11T20:34:11.189Z,0
2017-02-11T20:35:12.065Z,0
2017-02-11T20:36:11.598Z,0
2017-02-11T20:37:11.879Z,0
2017-02-11T20:38:11.856Z,0
2017-02-11T20:39:11.440Z,0
2017-02-11T20:40:11.413Z,0
2017-02-11T20:41:10.988Z,0
2017-02-11T20:42:11.361Z,0
2017-02-11T20:43:11.330Z,0
2017-02-11T20:44:11.355Z,0
2017-02-11T20:45:11.661Z,0
2017-02-11T20:46:11.308Z,0
2017-02-11T20:47:11.262Z,0
2017-02-11T20:48:11.597Z,0
2017-02-11T20:49:10.389Z,0
2017-02-11T20:50:10.762Z,0
2017-02-11T20:51:11.157Z,0
2017-02-11T20:52:11.107Z,0
2017-02-11T20:53:11.053Z,0
2017-02-11T20:54:10.686Z,0
2017-02-11T20:55:10.987Z,0
2017-02-11T20:56:10.959Z,0
2017-02-11T20:57:10.569Z,0
2017-02-11T20:58:11.367Z,0
2017-02-11T20:59:11.297Z,0
2017-02-11T21:00:11.150Z,0
2017-02-11T21:01:10.867Z,0
2017-02-11T21:02:11.191Z,0
2017-02-11T21:03:11.158Z,0
2017-02-11T21:04:10.370Z,0
2017-02-11T21:05:11.153Z,0
2017-02-11T21:06:10.294Z,0
2017-02-11T21:07:11.054Z,0
2017-02-11T21:08:10.627Z,0
2017-02-11T21:09:10.606Z,0
2017-02-11T21:10:11.006Z,0
2017-02-11T21:11:10.161Z,0
2017-02-11T21:12:10.142Z,0
2017-02-11T21:13:10.159Z,0
2017-02-11T21:14:10.853Z,0
2017-02-11T21:15:10.830Z,0
2017-02-11T21:16:10.815Z,0
2017-02-11T21:17:10.828Z,0
2017-02-11T21:18:10.034Z,0
2017-02-11T21:19:10.891Z,0
2017-02-11T21:20:09.920Z,0
2017-02-11T21:21:10.492Z,0
2017-02-11T21:22:10.243Z,0
2017-02-11T21:23:10.241Z,0
2017-02-11T21:24:09.438Z,0
2017-02-11T21:25:10.849Z,0
2017-02-11T21:26:10.573Z,0
2017-02-11T21:27:10.525Z,0
2017-02-11T21:28:10.086Z,0
2017-02-11T21:29:10.071Z,0
2017-02-11T21:30:10.465Z,0
2017-02-11T21:31:10.011Z,0
2017-02-11T21:32:10.043Z,0
2017-02-11T21:33:10.383Z,0
2017-02-11T21:34:09.923Z,0
2017-02-11T21:35:09.179Z,0
2017-02-11T21:36:10.013Z,0
2017-02-11T21:37:09.459Z,0
2017-02-11T21:38:10.187Z,0
2017-02-11T21:39:09.777Z,0
2017-02-11T21:40:10.136Z,0
2017-02-11T21:41:10.190Z,0
2017-02-11T21:42:09.689Z,0
2017-02-11T21:43:09.740Z,0
2017-02-11T21:44:10.040Z,0
2017-02-11T21:45:10.019Z,0
2017-02-11T21:46:08.886Z,0
2017-02-11T21:47:09.963Z,0
2017-02-11T21:48:09.538Z,0
2017-02-11T21:49:09.506Z,0
2017-02-11T21:50:09.883Z,0
2017-02-11T21:51:09.088Z,0
2017-02-11T21:52:09.815Z,0
2017-02-11T21:53:09.476Z,0
2017-02-11T21:54:09.761Z,0
2017-02-11T21:55:08.967Z,0
2017-02-11T21:56:08.938Z,0
2017-02-11T21:57:09.675Z,0
2017-02-11T21:58:08.870Z,0
2017-02-11T21:59:08.848Z,0
2017-02-11T22:00:09.210Z,0
2017-02-11T22:01:09.171Z,0
2017-02-11T22:02:09.526Z,0
2017-02-11T22:03:08.739Z,0
2017-02-11T22:04:09.081Z,0
2017-02-11T22:05:09.464Z,0
2017-02-11T22:06:09.098Z,0
2017-02-11T22:07:08.629Z,0
2017-02-11T22:08:09.023Z,0
2017-02-11T22:09:08.622Z,0
2017-02-11T22:10:08.928Z,0
2017-02-11T22:11:08.890Z,0
2017-02-11T22:12:09.238Z,0
2017-02-11T22:13:09.233Z,0
2017-02-11T22:14:08.815Z,0
2017-02-11T22:15:09.167Z,0
2017-02-11T22:16:09.153Z,0
2017-02-11T22:17:09.143Z,0
2017-02-11T22:18:09.079Z,0
2017-02-11T22:19:09.058Z,0
2017-02-11T22:20:08.656Z,0
2017-02-11T22:21:08.625Z,0
2017-02-11T22:22:08.596Z,0
2017-02-11T22:23:08.174Z,0
2017-02-11T22:24:08.610Z,0
2017-02-11T22:25:08.888Z,0
2017-02-11T22:26:08.473Z,0
2017-02-11T22:27:08.863Z,0
2017-02-11T22:28:08.421Z,0
2017-02-11T22:29:08.066Z,0
2017-02-11T22:30:08.751Z,0
2017-02-11T22:31:08.722Z,0
2017-02-11T22:32:07.937Z,0
2017-02-11T22:33:08.992Z,0
2017-02-11T22:34:07.875Z,0
2017-02-11T22:35:07.833Z,0
2017-02-11T22:36:07.820Z,0
2017-02-11T22:37:08.604Z,0
2017-02-11T22:38:08.527Z,0
2017-02-11T22:39:08.613Z,0
2017-02-11T22:40:08.154Z,0
2017-02-11T22:41:08.455Z,0
2017-02-11T22:42:08.418Z,0
2017-02-11T22:43:08.448Z,0
2017-02-11T22:44:08.376Z,0
2017-02-11T22:45:08.345Z,0
2017-02-11T22:46:07.926Z,0
2017-02-11T22:47:07.516Z,0
2017-02-11T22:48:08.264Z,0
2017-02-11T22:49:07.073Z,0
2017-02-11T22:50:07.425Z,0
2017-02-11T22:51:08.639Z,0
2017-02-11T22:52:07.384Z,0
2017-02-11T22:53:07.766Z,0
2017-02-11T22:54:07.365Z,0
2017-02-11T22:55:07.720Z,0
2017-02-11T22:56:07.650Z,0
2017-02-11T22:57:08.023Z,0
2017-02-11T22:58:07.598Z,0
2017-02-11T22:59:07.958Z,0
2017-02-11T23:00:07.541Z,0
2017-02-11T23:01:07.518Z,0
2017-02-11T23:02:07.486Z,0
2017-02-11T23:03:08.150Z,0
2017-02-11T23:04:07.821Z,0
2017-02-11T23:05:07.022Z,0
2017-02-11T23:06:07.369Z,0
2017-02-11T23:07:07.400Z,0
2017-02-11T23:08:07.319Z,0
2017-02-11T23:09:07.643Z,0
2017-02-11T23:10:07.647Z,0
2017-02-11T23:11:07.627Z,0
2017-02-11T23:12:07.256Z,0
2017-02-11T23:13:07.570Z,0
2017-02-11T23:14:07.548Z,0
2017-02-11T23:15:07.133Z,0
2017-02-11T23:16:06.710Z,0
2017-02-11T23:17:07.381Z,0
2017-02-11T23:18:06.669Z,0
2017-02-11T23:19:07.017Z,0
2017-02-11T23:20:06.606Z,0
2017-02-11T23:21:07.340Z,0
2017-02-11T23:22:07.329Z,0
2017-02-11T23:23:07.692Z,0
2017-02-11T23:24:06.866Z,0
2017-02-11T23:25:06.898Z,0
2017-02-11T23:26:06.825Z,0
2017-02-11T23:27:06.796Z,0
2017-02-11T23:28:06.755Z,0
2017-02-11T23:29:07.217Z,0
2017-02-11T23:30:07.112Z,0
2017-02-11T23:31:06.676Z,0
2017-02-11T23:32:06.698Z,0
2017-02-11T23:33:07.007Z,0
2017-02-11T23:34:06.603Z,0
2017-02-11T23:35:06.958Z,0
2017-02-11T23:36:06.551Z,0
2017-02-11T23:37:06.145Z,0
2017-02-11T23:38:06.797Z,0
2017-02-11T23:39:06.845Z,0
2017-02-11T23:40:06.154Z,0
2017-02-11T23:41:06.799Z,0
2017-02-11T23:42:06.377Z,0
2017-02-11T23:43:06.355Z,0
2017-02-11T23:44:06.336Z,0
2017-02-11T23:45:06.693Z,0
2017-02-11T23:46:06.322Z,0
2017-02-11T23:47:06.296Z,0
2017-02-11T23:48:06.228Z,0
2017-02-11T23:49:05.804Z,0
2017-02-11T23:50:06.547Z,0
2017-02-11T23:51:06.120Z,0
2017-02-11T23:52:06.482Z,0
2017-02-11T23:53:06.077Z,0
2017-02-11T23:54:05.658Z,0
2017-02-11T23:55:06.417Z,0
2017-02-11T23:56:06.378Z,0
2017-02-11T23:57:06.344Z,0
2017-02-11T23:58:06.328Z,0
2017-02-11T23:59:06.342Z,0
